sensor_id;sensor_type;location;lat;lon;timestamp;pressure;altitude;pressure_sealevel;temperature;humidity
20971;BME280;10644;48.834;10.088;2023-02-18T00:01:59;97500.53;;;14.07;65.69
20971;BME280;10644;48.834;10.088;2023-02-18T00:04:38;97498.38;;;14.15;65.28
20971;BME280;10644;48.834;10.088;2023-02-18T00:11:00;97495.22;;;14.10;65.14
20971;BME280;10644;48.834;10.088;2023-02-18T00:13:30;97482.63;;;14.21;64.87
20971;BME280;10644;48.834;10.088;2023-02-18T00:16:02;97491.72;;;14.11;65.11
20971;BME280;10644;48.834;10.088;2023-02-18T00:18:37;97479.91;;;14.07;65.38
20971;BME280;10644;48.834;10.088;2023-02-18T00:24:29;97479.34;;;14.02;64.98
20971;BME280;10644;48.834;10.088;2023-02-18T00:27:08;97473.59;;;13.97;65.29
20971;BME280;10644;48.834;10.088;2023-02-18T00:30:11;97484.75;;;13.97;65.39
20971;BME280;10644;48.834;10.088;2023-02-18T00:33:07;97478.41;;;14.03;65.41
20971;BME280;10644;48.834;10.088;2023-02-18T00:35:47;97478.84;;;14.11;64.89
20971;BME280;10644;48.834;10.088;2023-02-18T00:38:20;97475.00;;;14.18;64.61
20971;BME280;10644;48.834;10.088;2023-02-18T00:41:15;97479.75;;;14.10;64.83
20971;BME280;10644;48.834;10.088;2023-02-18T00:47:05;97470.38;;;13.78;65.46
20971;BME280;10644;48.834;10.088;2023-02-18T00:49:30;97474.47;;;13.82;65.50
20971;BME280;10644;48.834;10.088;2023-02-18T00:52:14;97475.53;;;13.78;65.24
20971;BME280;10644;48.834;10.088;2023-02-18T00:54:52;97493.16;;;13.85;64.83
20971;BME280;10644;48.834;10.088;2023-02-18T00:57:28;97474.78;;;13.91;64.63
20971;BME280;10644;48.834;10.088;2023-02-18T00:59:55;97471.78;;;13.99;64.62
20971;BME280;10644;48.834;10.088;2023-02-18T01:02:30;97462.81;;;14.06;64.25
20971;BME280;10644;48.834;10.088;2023-02-18T01:05:06;97467.63;;;13.96;64.29
20971;BME280;10644;48.834;10.088;2023-02-18T01:07:34;97473.13;;;13.90;64.25
20971;BME280;10644;48.834;10.088;2023-02-18T01:10:06;97465.22;;;13.78;64.99
20971;BME280;10644;48.834;10.088;2023-02-18T01:12:31;97464.16;;;13.82;64.66
20971;BME280;10644;48.834;10.088;2023-02-18T01:14:58;97465.28;;;13.92;64.51
20971;BME280;10644;48.834;10.088;2023-02-18T01:20:45;97472.59;;;13.99;64.32
20971;BME280;10644;48.834;10.088;2023-02-18T01:23:21;97479.59;;;14.13;63.55
20971;BME280;10644;48.834;10.088;2023-02-18T01:26:03;97476.53;;;14.06;63.66
20971;BME280;10644;48.834;10.088;2023-02-18T01:28:36;97480.50;;;14.12;63.62
20971;BME280;10644;48.834;10.088;2023-02-18T01:31:17;97460.31;;;14.04;63.85
20971;BME280;10644;48.834;10.088;2023-02-18T01:34:17;97464.88;;;14.15;63.58
20971;BME280;10644;48.834;10.088;2023-02-18T01:37:20;97467.28;;;14.18;63.52
20971;BME280;10644;48.834;10.088;2023-02-18T01:40:00;97463.47;;;13.94;64.22
20971;BME280;10644;48.834;10.088;2023-02-18T01:54:48;97457.81;;;14.03;64.01
20971;BME280;10644;48.834;10.088;2023-02-18T01:57:45;97458.84;;;14.00;64.11
20971;BME280;10644;48.834;10.088;2023-02-18T02:00:32;97455.16;;;13.89;64.59
20971;BME280;10644;48.834;10.088;2023-02-18T02:03:11;97457.50;;;13.93;64.35
20971;BME280;10644;48.834;10.088;2023-02-18T02:39:28;97416.47;;;13.90;nan
20971;BME280;10644;48.834;10.088;2023-02-18T02:54:13;97415.47;;;13.93;63.91
20971;BME280;10644;48.834;10.088;2023-02-18T02:56:45;97404.66;;;13.86;64.01
20971;BME280;10644;48.834;10.088;2023-02-18T02:59:33;97400.34;;;13.87;63.84
20971;BME280;10644;48.834;10.088;2023-02-18T03:05:02;97378.88;;;14.02;63.36
20971;BME280;10644;48.834;10.088;2023-02-18T03:11:04;97384.22;;;13.99;63.34
20971;BME280;10644;48.834;10.088;2023-02-18T03:20:09;97392.72;;;13.70;63.47
20971;BME280;10644;48.834;10.088;2023-02-18T03:22:43;97377.75;;;13.76;63.77
20971;BME280;10644;48.834;10.088;2023-02-18T03:25:25;97376.25;;;13.88;63.65
20971;BME280;10644;48.834;10.088;2023-02-18T03:28:12;97378.78;;;14.19;62.71
20971;BME280;10644;48.834;10.088;2023-02-18T03:30:55;97383.69;;;14.08;62.55
20971;BME280;10644;48.834;10.088;2023-02-18T03:39:56;97381.56;;;13.85;63.10
20971;BME280;10644;48.834;10.088;2023-02-18T03:42:25;97389.16;;;13.73;63.62
20971;BME280;10644;48.834;10.088;2023-02-18T03:48:15;97396.00;;;13.87;63.19
20971;BME280;10644;48.834;10.088;2023-02-18T03:50:48;97372.78;;;14.03;62.43
20971;BME280;10644;48.834;10.088;2023-02-18T03:56:29;97385.69;;;14.03;62.40
20971;BME280;10644;48.834;10.088;2023-02-18T03:58:54;97380.28;;;13.92;62.78
20971;BME280;10644;48.834;10.088;2023-02-18T04:01:29;97387.03;;;14.10;62.25
20971;BME280;10644;48.834;10.088;2023-02-18T04:04:05;97384.03;;;14.02;62.80
20971;BME280;10644;48.834;10.088;2023-02-18T04:06:31;97379.91;;;13.84;62.56
20971;BME280;10644;48.834;10.088;2023-02-18T04:08:58;97366.31;;;13.82;62.82
20971;BME280;10644;48.834;10.088;2023-02-18T04:11:30;97365.47;;;13.81;62.74
20971;BME280;10644;48.834;10.088;2023-02-18T04:13:55;97370.19;;;13.89;62.87
20971;BME280;10644;48.834;10.088;2023-02-18T04:16:26;97380.88;;;13.97;62.70
20971;BME280;10644;48.834;10.088;2023-02-18T04:18:52;97377.56;;;13.95;62.49
20971;BME280;10644;48.834;10.088;2023-02-18T04:27:45;97370.00;;;13.92;62.48
20971;BME280;10644;48.834;10.088;2023-02-18T04:33:36;97367.91;;;13.98;62.00
20971;BME280;10644;48.834;10.088;2023-02-18T04:36:02;97363.59;;;13.99;61.94
20971;BME280;10644;48.834;10.088;2023-02-18T04:39:00;97375.38;;;14.03;62.39
20971;BME280;10644;48.834;10.088;2023-02-18T04:41:43;97368.91;;;13.96;62.04
20971;BME280;10644;48.834;10.088;2023-02-18T04:44:27;97365.03;;;13.89;62.46
20971;BME280;10644;48.834;10.088;2023-02-18T04:46:53;97361.16;;;13.82;62.27
20971;BME280;10644;48.834;10.088;2023-02-18T04:49:36;97355.31;;;13.94;61.86
20971;BME280;10644;48.834;10.088;2023-02-18T04:52:04;97349.63;;;14.03;61.81
20971;BME280;10644;48.834;10.088;2023-02-18T04:54:58;97349.97;;;13.97;61.82
20971;BME280;10644;48.834;10.088;2023-02-18T05:00:51;97362.63;;;13.86;61.58
20971;BME280;10644;48.834;10.088;2023-02-18T05:03:49;97365.94;;;13.88;61.83
20971;BME280;10644;48.834;10.088;2023-02-18T05:06:24;97362.75;;;13.98;61.54
20971;BME280;10644;48.834;10.088;2023-02-18T05:15:12;97372.88;;;14.17;60.42
20971;BME280;10644;48.834;10.088;2023-02-18T05:21:16;97379.03;;;14.14;60.50
20971;BME280;10644;48.834;10.088;2023-02-18T05:23:42;97373.00;;;14.00;60.61
20971;BME280;10644;48.834;10.088;2023-02-18T05:26:07;97371.16;;;14.02;60.72
20971;BME280;10644;48.834;10.088;2023-02-18T05:31:41;97370.75;;;13.94;60.25
20971;BME280;10644;48.834;10.088;2023-02-18T05:34:39;97370.22;;;14.03;60.12
20971;BME280;10644;48.834;10.088;2023-02-18T05:37:09;97369.25;;;13.90;60.09
20971;BME280;10644;48.834;10.088;2023-02-18T05:39:40;97362.09;;;13.95;59.51
20971;BME280;10644;48.834;10.088;2023-02-18T05:42:16;97379.41;;;13.93;59.87
20971;BME280;10644;48.834;10.088;2023-02-18T05:44:43;97376.72;;;13.94;59.98
20971;BME280;10644;48.834;10.088;2023-02-18T05:47:30;97387.38;;;14.04;59.33
20971;BME280;10644;48.834;10.088;2023-02-18T05:49:58;97367.09;;;13.98;59.69
20971;BME280;10644;48.834;10.088;2023-02-18T05:52:24;97363.59;;;13.99;59.60
20971;BME280;10644;48.834;10.088;2023-02-18T05:55:18;97363.63;;;14.13;59.40
20971;BME280;10644;48.834;10.088;2023-02-18T05:58:04;97359.13;;;14.16;59.26
20971;BME280;10644;48.834;10.088;2023-02-18T06:00:32;97369.69;;;14.27;59.38
20971;BME280;10644;48.834;10.088;2023-02-18T06:02:58;97363.25;;;14.20;59.00
20971;BME280;10644;48.834;10.088;2023-02-18T06:05:30;97348.75;;;14.18;58.83
20971;BME280;10644;48.834;10.088;2023-02-18T06:11:28;97369.34;;;14.04;59.26
20971;BME280;10644;48.834;10.088;2023-02-18T06:14:31;97372.69;;;13.75;60.45
20971;BME280;10644;48.834;10.088;2023-02-18T06:16:56;97361.31;;;13.79;60.60
20971;BME280;10644;48.834;10.088;2023-02-18T06:19:35;97363.94;;;13.93;59.95
20971;BME280;10644;48.834;10.088;2023-02-18T06:22:20;97381.56;;;13.85;60.34
20971;BME280;10644;48.834;10.088;2023-02-18T06:25:24;97373.41;;;13.92;60.00
20971;BME280;10644;48.834;10.088;2023-02-18T06:27:55;97376.56;;;13.97;59.77
20971;BME280;10644;48.834;10.088;2023-02-18T06:30:43;97379.06;;;13.99;60.02
20971;BME280;10644;48.834;10.088;2023-02-18T06:33:09;97380.97;;;13.80;60.79
20971;BME280;10644;48.834;10.088;2023-02-18T06:35:40;97393.69;;;13.83;60.86
20971;BME280;10644;48.834;10.088;2023-02-18T06:38:14;97388.47;;;13.84;60.96
20971;BME280;10644;48.834;10.088;2023-02-18T06:40:47;97386.97;;;13.80;60.99
20971;BME280;10644;48.834;10.088;2023-02-18T06:43:18;97386.31;;;13.77;61.51
20971;BME280;10644;48.834;10.088;2023-02-18T06:45:48;97400.25;;;14.04;60.95
20971;BME280;10644;48.834;10.088;2023-02-18T06:51:59;97383.44;;;14.12;60.73
20971;BME280;10644;48.834;10.088;2023-02-18T06:54:35;97386.09;;;14.11;60.58
20971;BME280;10644;48.834;10.088;2023-02-18T06:57:07;97395.81;;;14.06;60.95
20971;BME280;10644;48.834;10.088;2023-02-18T06:59:33;97392.31;;;14.07;60.92
20971;BME280;10644;48.834;10.088;2023-02-18T07:01:58;97372.41;;;13.95;61.16
20971;BME280;10644;48.834;10.088;2023-02-18T07:04:33;97369.09;;;13.93;61.32
20971;BME280;10644;48.834;10.088;2023-02-18T07:07:06;97367.59;;;13.89;61.37
20971;BME280;10644;48.834;10.088;2023-02-18T07:09:31;97370.34;;;14.01;61.00
20971;BME280;10644;48.834;10.088;2023-02-18T07:11:57;97356.53;;;14.02;61.13
20971;BME280;10644;48.834;10.088;2023-02-18T07:14:31;97365.75;;;13.91;61.30
20971;BME280;10644;48.834;10.088;2023-02-18T07:20:32;97365.28;;;14.14;60.98
20971;BME280;10644;48.834;10.088;2023-02-18T07:23:10;97340.81;;;14.07;61.17
20971;BME280;10644;48.834;10.088;2023-02-18T07:25:38;97349.84;;;14.14;61.51
20971;BME280;10644;48.834;10.088;2023-02-18T07:28:11;97352.38;;;14.00;61.31
20971;BME280;10644;48.834;10.088;2023-02-18T07:30:56;97357.25;;;14.20;60.62
20971;BME280;10644;48.834;10.088;2023-02-18T07:33:23;97343.59;;;14.18;60.69
20971;BME280;10644;48.834;10.088;2023-02-18T07:35:56;97337.31;;;14.08;60.51
20971;BME280;10644;48.834;10.088;2023-02-18T07:38:22;97351.84;;;13.79;61.61
20971;BME280;10644;48.834;10.088;2023-02-18T07:40:49;97351.06;;;13.93;61.00
20971;BME280;10644;48.834;10.088;2023-02-18T07:43:24;97345.44;;;13.86;61.06
20971;BME280;10644;48.834;10.088;2023-02-18T07:46:13;97345.94;;;13.77;61.30
20971;BME280;10644;48.834;10.088;2023-02-18T07:48:57;97343.28;;;13.79;61.27
20971;BME280;10644;48.834;10.088;2023-02-18T07:51:50;97336.94;;;14.00;61.12
20971;BME280;10644;48.834;10.088;2023-02-18T07:58:06;97327.81;;;14.24;60.25
20971;BME280;10644;48.834;10.088;2023-02-18T08:00:39;97317.91;;;14.16;60.66
20971;BME280;10644;48.834;10.088;2023-02-18T08:03:28;97324.00;;;14.15;60.72
20971;BME280;10644;48.834;10.088;2023-02-18T08:12:24;97332.03;;;14.25;60.04
20971;BME280;10644;48.834;10.088;2023-02-18T08:14:51;97317.50;;;14.24;60.19
20971;BME280;10644;48.834;10.088;2023-02-18T08:17:42;97325.63;;;14.32;59.95
20971;BME280;10644;48.834;10.088;2023-02-18T08:20:09;97329.91;;;14.17;60.27
20971;BME280;10644;48.834;10.088;2023-02-18T08:22:34;97318.09;;;14.13;60.19
20971;BME280;10644;48.834;10.088;2023-02-18T08:25:06;97317.47;;;14.10;60.60
20971;BME280;10644;48.834;10.088;2023-02-18T08:27:36;97305.31;;;14.12;60.61
20971;BME280;10644;48.834;10.088;2023-02-18T08:30:11;97308.84;;;14.25;60.28
20971;BME280;10644;48.834;10.088;2023-02-18T08:35:47;97313.53;;;14.18;60.53
20971;BME280;10644;48.834;10.088;2023-02-18T08:41:54;97312.56;;;14.35;59.96
20971;BME280;10644;48.834;10.088;2023-02-18T08:47:33;97290.50;;;14.15;59.63
20971;BME280;10644;48.834;10.088;2023-02-18T08:50:03;97294.22;;;14.25;59.63
20971;BME280;10644;48.834;10.088;2023-02-18T08:52:30;97293.34;;;14.40;58.90
20971;BME280;10644;48.834;10.088;2023-02-18T08:58:04;97294.34;;;14.38;59.15
20971;BME280;10644;48.834;10.088;2023-02-18T09:00:42;97299.50;;;14.38;59.25
20971;BME280;10644;48.834;10.088;2023-02-18T09:03:12;97288.19;;;14.68;58.65
20971;BME280;10644;48.834;10.088;2023-02-18T09:05:39;97290.84;;;14.67;58.58
20971;BME280;10644;48.834;10.088;2023-02-18T09:08:06;97289.19;;;14.66;58.42
20971;BME280;10644;48.834;10.088;2023-02-18T09:11:04;97298.56;;;14.81;58.23
20971;BME280;10644;48.834;10.088;2023-02-18T09:13:37;97284.03;;;14.80;58.09
20971;BME280;10644;48.834;10.088;2023-02-18T09:18:56;97298.19;;;14.87;58.24
20971;BME280;10644;48.834;10.088;2023-02-18T09:21:35;97305.22;;;14.71;58.62
20971;BME280;10644;48.834;10.088;2023-02-18T09:24:00;97278.88;;;14.66;58.22
20971;BME280;10644;48.834;10.088;2023-02-18T09:26:33;97302.06;;;14.80;57.77
20971;BME280;10644;48.834;10.088;2023-02-18T09:29:16;97274.00;;;14.75;57.81
20971;BME280;10644;48.834;10.088;2023-02-18T09:31:43;97285.88;;;14.64;58.23
20971;BME280;10644;48.834;10.088;2023-02-18T09:34:08;97286.06;;;14.61;58.10
20971;BME280;10644;48.834;10.088;2023-02-18T09:36:37;97278.78;;;14.67;57.89
20971;BME280;10644;48.834;10.088;2023-02-18T09:39:05;97278.06;;;14.79;57.30
20971;BME280;10644;48.834;10.088;2023-02-18T09:41:56;97287.63;;;14.91;57.16
20971;BME280;10644;48.834;10.088;2023-02-18T09:49:57;97262.97;;;15.14;57.42
20971;BME280;10644;48.834;10.088;2023-02-18T09:52:41;97253.00;;;15.22;56.82
20971;BME280;10644;48.834;10.088;2023-02-18T09:55:35;97247.22;;;15.31;56.89
20971;BME280;10644;48.834;10.088;2023-02-18T09:58:23;97252.31;;;15.06;57.16
20971;BME280;10644;48.834;10.088;2023-02-18T10:01:10;97249.16;;;15.01;56.65
20971;BME280;10644;48.834;10.088;2023-02-18T10:03:44;97241.59;;;15.12;57.04
20971;BME280;10644;48.834;10.088;2023-02-18T10:06:32;97246.03;;;14.96;57.03
20971;BME280;10644;48.834;10.088;2023-02-18T10:09:06;97244.16;;;15.12;56.72
20971;BME280;10644;48.834;10.088;2023-02-18T10:11:56;97247.44;;;15.28;56.26
20971;BME280;10644;48.834;10.088;2023-02-18T10:14:23;97238.50;;;15.33;55.75
20971;BME280;10644;48.834;10.088;2023-02-18T10:16:56;97256.09;;;15.27;55.96
20971;BME280;10644;48.834;10.088;2023-02-18T10:19:28;97238.41;;;15.21;56.18
20971;BME280;10644;48.834;10.088;2023-02-18T10:22:05;97256.47;;;15.35;55.73
20971;BME280;10644;48.834;10.088;2023-02-18T10:24:52;97256.75;;;15.30;55.71
20971;BME280;10644;48.834;10.088;2023-02-18T10:27:31;97263.66;;;15.44;55.46
20971;BME280;10644;48.834;10.088;2023-02-18T10:30:15;97255.91;;;15.44;55.54
20971;BME280;10644;48.834;10.088;2023-02-18T10:35:56;97250.03;;;15.28;55.48
20971;BME280;10644;48.834;10.088;2023-02-18T10:47:48;97252.25;;;15.34;56.86
20971;BME280;10644;48.834;10.088;2023-02-18T10:50:41;97245.22;;;15.36;56.94
20971;BME280;10644;48.834;10.088;2023-02-18T10:56:06;97241.31;;;15.43;56.81
20971;BME280;10644;48.834;10.088;2023-02-18T10:58:46;97250.34;;;15.50;56.87
20971;BME280;10644;48.834;10.088;2023-02-18T11:01:19;97240.16;;;15.61;56.64
20971;BME280;10644;48.834;10.088;2023-02-18T11:03:52;97225.44;;;15.49;56.74
20971;BME280;10644;48.834;10.088;2023-02-18T11:06:40;97250.38;;;15.36;56.66
20971;BME280;10644;48.834;10.088;2023-02-18T11:09:06;97240.81;;;15.24;57.25
20971;BME280;10644;48.834;10.088;2023-02-18T11:11:45;97251.31;;;15.35;56.92
20971;BME280;10644;48.834;10.088;2023-02-18T11:14:15;97241.13;;;15.32;57.06
20971;BME280;10644;48.834;10.088;2023-02-18T11:17:21;97229.16;;;15.45;56.81
20971;BME280;10644;48.834;10.088;2023-02-18T11:20:00;97238.56;;;15.46;56.82
20971;BME280;10644;48.834;10.088;2023-02-18T11:22:42;97207.34;;;15.49;56.61
20971;BME280;10644;48.834;10.088;2023-02-18T11:25:41;97207.16;;;15.52;56.60
20971;BME280;10644;48.834;10.088;2023-02-18T11:31:03;97197.88;;;15.23;57.12
20971;BME280;10644;48.834;10.088;2023-02-18T11:33:55;97179.56;;;15.40;57.05
20971;BME280;10644;48.834;10.088;2023-02-18T11:36:38;97171.94;;;15.51;56.45
20971;BME280;10644;48.834;10.088;2023-02-18T11:39:25;97177.03;;;15.65;56.05
20971;BME280;10644;48.834;10.088;2023-02-18T11:42:14;97175.50;;;15.75;56.05
20971;BME280;10644;48.834;10.088;2023-02-18T11:44:50;97162.47;;;15.64;55.67
20971;BME280;10644;48.834;10.088;2023-02-18T11:47:42;97158.09;;;15.52;56.42
20971;BME280;10644;48.834;10.088;2023-02-18T11:52:49;97167.50;;;15.53;55.45
20971;BME280;10644;48.834;10.088;2023-02-18T11:55:28;97175.88;;;15.44;55.43
20971;BME280;10644;48.834;10.088;2023-02-18T11:57:58;97156.66;;;15.48;55.69
20971;BME280;10644;48.834;10.088;2023-02-18T12:00:43;97151.91;;;15.54;55.53
20971;BME280;10644;48.834;10.088;2023-02-18T12:03:40;97160.16;;;15.47;55.65
20971;BME280;10644;48.834;10.088;2023-02-18T12:06:14;97162.97;;;15.30;55.60
20971;BME280;10644;48.834;10.088;2023-02-18T12:08:55;97178.31;;;15.45;55.38
20971;BME280;10644;48.834;10.088;2023-02-18T12:11:53;97159.53;;;15.43;55.45
20971;BME280;10644;48.834;10.088;2023-02-18T12:14:22;97158.28;;;15.49;55.25
20971;BME280;10644;48.834;10.088;2023-02-18T12:25:12;97143.44;;;15.40;55.62
20971;BME280;10644;48.834;10.088;2023-02-18T12:40:31;97137.78;;;15.85;54.92
20971;BME280;10644;48.834;10.088;2023-02-18T12:52:41;97120.69;;;16.20;53.74
20971;BME280;10644;48.834;10.088;2023-02-18T13:10:05;97108.81;;;16.66;52.88
20971;BME280;10644;48.834;10.088;2023-02-18T13:12:49;97110.00;;;16.73;51.93
20971;BME280;10644;48.834;10.088;2023-02-18T13:15:37;97113.28;;;16.64;52.48
20971;BME280;10644;48.834;10.088;2023-02-18T13:18:21;97120.06;;;16.41;52.31
20971;BME280;10644;48.834;10.088;2023-02-18T13:21:09;97112.59;;;16.49;52.89
20971;BME280;10644;48.834;10.088;2023-02-18T13:23:39;97118.81;;;16.34;52.73
20971;BME280;10644;48.834;10.088;2023-02-18T13:26:10;97116.84;;;16.25;52.68
20971;BME280;10644;48.834;10.088;2023-02-18T13:29:25;97125.44;;;16.13;53.52
20971;BME280;10644;48.834;10.088;2023-02-18T13:40:51;97108.47;;;16.22;52.55
20971;BME280;10644;48.834;10.088;2023-02-18T13:43:45;97097.72;;;16.40;52.30
20971;BME280;10644;48.834;10.088;2023-02-18T13:46:21;97090.69;;;16.30;51.96
20971;BME280;10644;48.834;10.088;2023-02-18T13:51:46;97105.19;;;16.20;51.87
20971;BME280;10644;48.834;10.088;2023-02-18T13:54:43;97099.94;;;16.09;51.91
20971;BME280;10644;48.834;10.088;2023-02-18T13:57:20;97104.91;;;15.99;52.23
20971;BME280;10644;48.834;10.088;2023-02-18T14:00:14;97109.13;;;16.13;51.85
20971;BME280;10644;48.834;10.088;2023-02-18T14:05:54;97080.97;;;16.21;50.91
20971;BME280;10644;48.834;10.088;2023-02-18T14:08:38;97081.13;;;16.07;50.79
20971;BME280;10644;48.834;10.088;2023-02-18T14:15:40;97084.50;;;16.20;50.35
20971;BME280;10644;48.834;10.088;2023-02-18T14:26:31;97085.56;;;16.05;50.18
20971;BME280;10644;48.834;10.088;2023-02-18T14:29:27;97098.59;;;15.91;50.80
20971;BME280;10644;48.834;10.088;2023-02-18T14:32:25;97078.88;;;15.90;50.90
20971;BME280;10644;48.834;10.088;2023-02-18T14:50:24;97081.66;;;15.87;50.23
20971;BME280;10644;48.834;10.088;2023-02-18T14:56:19;97062.88;;;15.85;50.15
20971;BME280;10644;48.834;10.088;2023-02-18T14:58:56;97062.53;;;16.02;49.65
20971;BME280;10644;48.834;10.088;2023-02-18T15:01:29;97057.59;;;16.35;49.33
20971;BME280;10644;48.834;10.088;2023-02-18T15:04:02;97048.03;;;16.35;49.00
20971;BME280;10644;48.834;10.088;2023-02-18T15:09:55;97059.38;;;16.58;48.42
20971;BME280;10644;48.834;10.088;2023-02-18T15:12:24;97077.59;;;16.56;48.32
20971;BME280;10644;48.834;10.088;2023-02-18T15:14:56;97078.44;;;16.57;48.05
20971;BME280;10644;48.834;10.088;2023-02-18T15:17:31;97064.72;;;16.67;48.38
20971;BME280;10644;48.834;10.088;2023-02-18T15:20:06;97089.41;;;16.95;47.69
20971;BME280;10644;48.834;10.088;2023-02-18T15:22:40;97066.97;;;16.72;47.57
20971;BME280;10644;48.834;10.088;2023-02-18T15:25:13;97075.22;;;16.77;47.83
20971;BME280;10644;48.834;10.088;2023-02-18T15:30:57;97070.94;;;16.65;47.73
20971;BME280;10644;48.834;10.088;2023-02-18T15:33:22;97079.47;;;16.54;48.05
20971;BME280;10644;48.834;10.088;2023-02-18T15:36:05;97086.22;;;16.44;48.29
20971;BME280;10644;48.834;10.088;2023-02-18T15:39:21;97091.16;;;16.47;48.75
20971;BME280;10644;48.834;10.088;2023-02-18T15:41:55;97075.97;;;16.30;48.26
20971;BME280;10644;48.834;10.088;2023-02-18T15:44:25;97064.31;;;16.25;49.04
20971;BME280;10644;48.834;10.088;2023-02-18T15:46:52;97077.88;;;16.28;48.78
20971;BME280;10644;48.834;10.088;2023-02-18T15:55:37;97075.81;;;16.21;49.28
20971;BME280;10644;48.834;10.088;2023-02-18T15:58:28;97070.44;;;16.60;48.94
20971;BME280;10644;48.834;10.088;2023-02-18T16:01:06;97066.22;;;16.59;48.80
20971;BME280;10644;48.834;10.088;2023-02-18T16:06:26;97064.84;;;16.42;48.93
20971;BME280;10644;48.834;10.088;2023-02-18T16:09:25;97073.41;;;16.43;49.10
20971;BME280;10644;48.834;10.088;2023-02-18T16:12:01;97073.72;;;16.26;49.47
20971;BME280;10644;48.834;10.088;2023-02-18T16:20:00;97080.28;;;16.19;49.55
20971;BME280;10644;48.834;10.088;2023-02-18T16:22:40;97074.88;;;16.22;49.49
20971;BME280;10644;48.834;10.088;2023-02-18T16:25:43;97073.66;;;16.15;49.61
20971;BME280;10644;48.834;10.088;2023-02-18T16:28:24;97081.41;;;16.15;49.74
20971;BME280;10644;48.834;10.088;2023-02-18T16:30:52;97077.72;;;15.94;50.13
20971;BME280;10644;48.834;10.088;2023-02-18T16:33:26;97075.03;;;15.83;50.24
20971;BME280;10644;48.834;10.088;2023-02-18T16:36:06;97084.03;;;15.65;51.08
20971;BME280;10644;48.834;10.088;2023-02-18T16:38:50;97069.91;;;15.70;50.84
20971;BME280;10644;48.834;10.088;2023-02-18T16:41:35;97078.78;;;15.79;50.65
20971;BME280;10644;48.834;10.088;2023-02-18T16:44:16;97079.09;;;15.62;51.11
20971;BME280;10644;48.834;10.088;2023-02-18T16:49:52;97078.66;;;15.80;50.57
20971;BME280;10644;48.834;10.088;2023-02-18T16:52:21;97078.66;;;15.80;51.02
20971;BME280;10644;48.834;10.088;2023-02-18T16:54:57;97087.44;;;15.53;51.32
20971;BME280;10644;48.834;10.088;2023-02-18T16:57:28;97089.84;;;15.56;51.18
20971;BME280;10644;48.834;10.088;2023-02-18T17:00:00;97094.25;;;15.54;51.76
20971;BME280;10644;48.834;10.088;2023-02-18T17:02:32;97088.28;;;15.66;51.50
20971;BME280;10644;48.834;10.088;2023-02-18T17:05:33;97096.88;;;15.79;51.34
20971;BME280;10644;48.834;10.088;2023-02-18T17:08:27;97099.44;;;15.66;51.48
20971;BME280;10644;48.834;10.088;2023-02-18T17:10:55;97103.25;;;15.73;51.58
20971;BME280;10644;48.834;10.088;2023-02-18T17:13:33;97103.59;;;15.81;51.15
20971;BME280;10644;48.834;10.088;2023-02-18T17:16:01;97101.59;;;15.72;51.39
20971;BME280;10644;48.834;10.088;2023-02-18T17:18:27;97111.63;;;15.77;51.79
20971;BME280;10644;48.834;10.088;2023-02-18T17:21:02;97107.72;;;15.71;51.84
20971;BME280;10644;48.834;10.088;2023-02-18T17:23:39;97111.09;;;15.47;52.28
20971;BME280;10644;48.834;10.088;2023-02-18T17:26:20;97122.38;;;15.46;52.93
20971;BME280;10644;48.834;10.088;2023-02-18T17:28:53;97132.00;;;15.30;53.68
20971;BME280;10644;48.834;10.088;2023-02-18T17:31:44;97136.94;;;15.20;54.21
20971;BME280;10644;48.834;10.088;2023-02-18T17:34:28;97128.75;;;15.14;54.52
20971;BME280;10644;48.834;10.088;2023-02-18T17:36:56;97131.75;;;15.08;54.69
20971;BME280;10644;48.834;10.088;2023-02-18T17:39:21;97131.66;;;15.09;54.86
20971;BME280;10644;48.834;10.088;2023-02-18T17:42:05;97135.03;;;15.10;54.67
20971;BME280;10644;48.834;10.088;2023-02-18T17:45:00;97142.72;;;15.24;54.59
20971;BME280;10644;48.834;10.088;2023-02-18T17:47:26;97140.19;;;15.10;54.76
20971;BME280;10644;48.834;10.088;2023-02-18T17:49:51;97148.78;;;15.10;55.12
20971;BME280;10644;48.834;10.088;2023-02-18T17:52:28;97152.09;;;15.12;55.01
20971;BME280;10644;48.834;10.088;2023-02-18T17:54:58;97154.88;;;15.09;55.47
20971;BME280;10644;48.834;10.088;2023-02-18T17:57:37;97163.41;;;15.10;55.51
20971;BME280;10644;48.834;10.088;2023-02-18T18:00:22;97179.22;;;15.05;55.71
20971;BME280;10644;48.834;10.088;2023-02-18T18:02:57;97173.41;;;15.02;55.99
20971;BME280;10644;48.834;10.088;2023-02-18T18:05:37;97179.22;;;15.05;55.97
20971;BME280;10644;48.834;10.088;2023-02-18T18:08:06;97173.63;;;14.99;56.00
20971;BME280;10644;48.834;10.088;2023-02-18T18:10:45;97184.59;;;15.02;56.40
20971;BME280;10644;48.834;10.088;2023-02-18T18:13:22;97183.59;;;14.91;56.69
20971;BME280;10644;48.834;10.088;2023-02-18T18:15:53;97184.31;;;14.93;56.82
20971;BME280;10644;48.834;10.088;2023-02-18T18:18:24;97189.13;;;14.99;56.86
20971;BME280;10644;48.834;10.088;2023-02-18T18:20:55;97192.41;;;15.01;57.07
20971;BME280;10644;48.834;10.088;2023-02-18T18:23:52;97205.88;;;14.92;57.97
20971;BME280;10644;48.834;10.088;2023-02-18T18:26:22;97203.25;;;14.79;58.75
20971;BME280;10644;48.834;10.088;2023-02-18T18:28:55;97213.50;;;14.67;59.63
20971;BME280;10644;48.834;10.088;2023-02-18T18:31:24;97216.78;;;14.69;60.37
20971;BME280;10644;48.834;10.088;2023-02-18T18:33:54;97215.88;;;14.70;60.86
20971;BME280;10644;48.834;10.088;2023-02-18T18:36:22;97213.50;;;14.67;61.23
20971;BME280;10644;48.834;10.088;2023-02-18T18:38:55;97214.03;;;14.58;62.57
20971;BME280;10644;48.834;10.088;2023-02-18T18:41:26;97208.47;;;14.51;62.56
20971;BME280;10644;48.834;10.088;2023-02-18T18:43:59;97214.97;;;14.57;63.62